Time;durP1;ratioP1;P1;durP2;ratioP2;P2;SDS_P1;SDS_P2;PMS_P1;PMS_P2;Temp;Humidity;BMP_temperature;BMP_pressure;BME280_temperature;BME280_humidity;BME280_pressure;Samples;Min_cycle;Max_cycle;Signal;HPM_P1;HPM_P2
2022/11/01 00:01:58;;;;;;;;;;;;;;;;;;5112269;28;1385;-39
2022/11/01 00:04:26;;;;;;;;;;;;;;;;;;5112246;28;1936;-38
2022/11/01 00:06:53;;;;;;;;;;;;;;;;;;5110049;28;1468;-37
2022/11/01 00:09:20;;;;;;;;;;;;;;;;;;5111339;28;1740;-37
2022/11/01 00:11:48;;;;;;;;;;;;;;;;;;5111243;28;1595;-38
2022/11/01 00:14:17;;;;;;;;;;;;;;;;;;5111291;28;2046;-38
2022/11/01 00:16:45;;;;;;;;;;;;;;;;;;5111153;28;2140;-38
2022/11/01 00:19:12;;;;;;;;;;;;;;;;;;5111275;28;1949;-36
2022/11/01 00:21:39;;;;;;;;;;;;;;;;;;5110976;28;2033;-38
2022/11/01 00:24:07;;;;;;;;;;;;;;;;;;5110964;28;2002;-37
2022/11/01 00:26:34;;;;;;;;;;;;;;;;;;5111500;28;1525;-38
2022/11/01 00:29:02;;;;;;;;;;;;;;;;;;5111413;28;1910;-39
2022/11/01 00:31:29;;;;;;;;;;;;;;;;;;5111172;28;2026;-38
2022/11/01 00:33:56;;;;;;;;;;;;;;;;;;5110960;28;1884;-38
2022/11/01 00:36:24;;;;;;;;;;;;;;;;;;5110989;28;2165;-38
2022/11/01 00:38:51;;;;;;;;;;;;;;;;;;5111156;28;1628;-37
2022/11/01 00:41:20;;;;;;;;;;;;;;;;;;5110785;28;2398;-37
2022/11/01 00:43:48;;;;;;;;;;;;;;;;;;5110905;28;1537;-37
2022/11/01 00:46:17;;;;;;;;;;;;;;;;;;5111000;28;2200;-36
2022/11/01 00:48:44;;;;;;;;;;;;;;;;;;5110669;28;1954;-38
2022/11/01 00:51:12;;;;;;;;;;;;;;;;;;5100371;28;1705;-38
2022/11/01 00:53:39;;;;;;;;;;;;;;;;;;5089226;28;1770;-37
2022/11/01 00:56:07;;;;;;;;;;;;;;;;;;5090215;28;1976;-40
2022/11/01 00:58:38;;;;;;;;;;;;;;;;;;5090690;28;1753;-37
2022/11/01 01:01:05;;;;;;;;;;;;;;;;;;5088921;28;1524;-37
2022/11/01 01:03:33;;;;;;;;;;;;;;;;;;5090562;28;1745;-38
2022/11/01 01:06:01;;;;;;;;;;;;;;;;;;5090513;28;2101;-37
2022/11/01 01:08:28;;;;;;;;;;;;;;;;;;5090814;28;2339;-37
2022/11/01 01:10:56;;;;;;;;;;;;;;;;;;5091185;28;1503;-38
2022/11/01 01:13:23;;;;;;;;;;;;;;;;;;5090955;28;1440;-41
2022/11/01 01:15:50;;;;;;;;;;;;;;;;;;5090924;28;1994;-37
2022/11/01 01:18:18;;;;;;;;;;;;;;;;;;5089886;28;2055;-38
2022/11/01 01:20:45;;;;;;;;;;;;;;;;;;5090496;28;1833;-37
2022/11/01 01:23:12;;;;;;;;;;;;;;;;;;5091026;28;1418;-38
2022/11/01 01:25:40;;;;;;;;;;;;;;;;;;5091091;28;1996;-38
2022/11/01 01:28:08;;;;;;;;;;;;;;;;;;5090942;28;1650;-38
2022/11/01 01:30:38;;;;;;;;;;;;;;;;;;5091090;28;1532;-37
2022/11/01 01:33:05;;;;;;;;;;;;;;;;;;5091012;28;1952;-43
2022/11/01 01:35:32;;;;;;;;;;;;;;;;;;5090716;28;2302;-37
2022/11/01 01:37:59;;;;;;;;;;;;;;;;;;5090547;28;1501;-37
2022/11/01 01:40:27;;;;;;;;;;;;;;;;;;5089244;28;2131;-37
2022/11/01 01:42:54;;;;;;;;;;;;;;;;;;5090575;28;1285;-37
2022/11/01 01:45:30;;;;;;;;;;;;;;;;;;5090580;28;1501;-38
2022/11/01 01:48:01;;;;;;;;;;;;;;;;;;5090659;28;1206;-37
2022/11/01 01:50:28;;;;;;;;;;;;;;;;;;5093689;28;2248;-38
2022/11/01 01:53:02;;;;;;;;;;;;;;;;;;5110977;28;1415;-37
2022/11/01 01:55:35;;;;;;;;;;;;;;;;;;5099736;28;2064;-38
2022/11/01 01:58:03;;;;;;;;;;;;;;;;;;5090699;28;1487;-37
2022/11/01 02:00:30;;;;;;;;;;;;;;;;;;5090581;28;1917;-37
2022/11/01 02:02:58;;;;;;;;;;;;;;;;;;5103705;28;1734;-37
2022/11/01 02:05:28;;;;;;;;;;;;;;;;;;5114482;28;1644;-37
2022/11/01 02:07:55;;;;;;;;;;;;;;;;;;5114364;28;2197;-38
2022/11/01 02:10:22;;;;;;;;;;;;;;;;;;5114667;28;1840;-37
2022/11/01 02:12:49;;;;;;;;;;;;;;;;;;5099550;28;1945;-37
2022/11/01 02:15:19;;;;;;;;;;;;;;;;;;5093896;28;2075;-37
2022/11/01 02:17:52;;;;;;;;;;;;;;;;;;5094074;28;1402;-37
2022/11/01 02:20:35;;;;;;;;;;;;;;;;;;5093776;28;2058;-37
2022/11/01 02:23:41;;;;;;;;;;;;;;;;;;5093759;28;1941;-38
2022/11/01 02:26:26;;;;;;;;;;;;;;;;;;5091424;28;1760;-37
2022/11/01 02:28:56;;;;;;;;;;;;;;;;;;5091458;28;1843;-37
2022/11/01 02:31:34;;;;;;;;;;;;;;;;;;5092677;28;2200;-38
2022/11/01 02:34:09;;;;;;;;;;;;;;;;;;5093699;28;2073;-37
2022/11/01 02:36:42;;;;;;;;;;;;;;;;;;5093478;28;2092;-38
2022/11/01 02:39:20;;;;;;;;;;;;;;;;;;5093515;28;1679;-37
2022/11/01 02:41:50;;;;;;;;;;;;;;;;;;5093436;28;2062;-37
2022/11/01 02:44:21;;;;;;;;;;;;;;;;;;5093462;28;1137;-37
2022/11/01 02:47:01;;;;;;;;;;;;;;;;;;5093344;28;1708;-37
2022/11/01 02:49:30;;;;;;;;;;;;;;;;;;5093288;28;1307;-38
2022/11/01 02:51:59;;;;;;;;;;;;;;;;;;5093060;28;2114;-37
2022/11/01 02:54:27;;;;;;;;;;;;;;;;;;5093398;28;1822;-38
2022/11/01 02:56:57;;;;;;;;;;;;;;;;;;5093111;28;1981;-38
2022/11/01 02:59:26;;;;;;;;;;;;;;;;;;5093381;28;1520;-37
2022/11/01 03:02:02;;;;;;;;;;;;;;;;;;5092963;28;1334;-37
2022/11/01 03:04:30;;;;;;;;;;;;;;;;;;5092882;28;1987;-38
2022/11/01 03:06:58;;;;;;;;;;;;;;;;;;5092878;28;1201;-37
2022/11/01 03:09:26;;;;;;;;;;;;;;;;;;5092715;28;1647;-37
2022/11/01 03:11:56;;;;;;;;;;;;;;;;;;5092923;28;1669;-37
2022/11/01 03:14:37;;;;;;;;;;;;;;;;;;5091711;28;1688;-38
2022/11/01 03:17:08;;;;;;;;;;;;;;;;;;5092718;28;1906;-36
2022/11/01 03:19:41;;;;;;;;;;;;;;;;;;5092777;28;1356;-38
2022/11/01 03:22:15;;;;;;;;;;;;;;;;;;5092660;28;1932;-40
2022/11/01 03:24:49;;;;;;;;;;;;;;;;;;5092739;28;1679;-38
2022/11/01 03:27:26;;;;;;;;;;;;;;;;;;5092500;28;1958;-38
2022/11/01 03:29:58;;;;;;;;;;;;;;;;;;5091357;28;1731;-43
2022/11/01 03:32:29;;;;;;;;;;;;;;;;;;5092227;28;1821;-39
2022/11/01 03:34:57;;;;;;;;;;;;;;;;;;5092348;28;1775;-40
2022/11/01 03:37:24;;;;;;;;;;;;;;;;;;5091955;28;1690;-39
2022/11/01 03:39:53;;;;;;;;;;;;;;;;;;5092430;28;1688;-42
2022/11/01 03:42:22;;;;;;;;;;;;;;;;;;5092216;28;1628;-39
2022/11/01 03:44:53;;;;;;;;;;;;;;;;;;5092078;28;2092;-43
2022/11/01 03:47:21;;;;;;;;;;;;;;;;;;5092144;28;2014;-38
2022/11/01 03:50:08;;;;;;;;;;;;;;;;;;5092276;28;2164;-41
2022/11/01 03:52:36;;;;;;;;;;;;;;;;;;5090744;28;1593;-41
2022/11/01 03:55:16;;;;;;;;;;;;;;;;;;5091898;28;2047;-39
2022/11/01 03:57:47;;;;;;;;;;;;;;;;;;5092133;28;1666;-38
2022/11/01 04:00:16;;;;;;;;;;;;;;;;;;5090612;28;2055;-39
2022/11/01 04:02:44;;;;;;;;;;;;;;;;;;5092110;28;1916;-41
2022/11/01 04:05:12;;;;;;;;;;;;;;;;;;5091840;28;1461;-39
2022/11/01 04:07:39;;;;;;;;;;;;;;;;;;5091750;28;1939;-40
2022/11/01 04:10:07;;;;;;;;;;;;;;;;;;5091952;28;1726;-39
2022/11/01 04:12:34;;;;;;;;;;;;;;;;;;5091763;28;1545;-44
2022/11/01 04:20:35;;;;;;;;;;;;;;;;;;5091750;28;1419;-40
2022/11/01 04:23:04;;;;;;;;;;;;;;;;;;5091760;28;1695;-38
2022/11/01 04:25:32;;;;;;;;;;;;;;;;;;5094079;28;1981;-39
2022/11/01 04:28:00;;;;;;;;;;;;;;;;;;5112226;28;2100;-38
2022/11/01 04:30:29;;;;;;;;;;;;;;;;;;5111909;28;1624;-38
2022/11/01 04:32:56;;;;;;;;;;;;;;;;;;5112216;28;1357;-40
2022/11/01 04:35:24;;;;;;;;;;;;;;;;;;5111823;28;2036;-39
2022/11/01 04:37:56;;;;;;;;;;;;;;;;;;5111675;28;1628;-38
2022/11/01 04:40:24;;;;;;;;;;;;;;;;;;5112021;28;1512;-41
2022/11/01 04:42:52;;;;;;;;;;;;;;;;;;5112046;28;1617;-38
2022/11/01 04:45:20;;;;;;;;;;;;;;;;;;5111936;28;1656;-36
2022/11/01 04:47:51;;;;;;;;;;;;;;;;;;5111745;28;1303;-38
2022/11/01 04:50:19;;;;;;;;;;;;;;;;;;5111637;28;1711;-39
2022/11/01 04:52:47;;;;;;;;;;;;;;;;;;5111681;28;2094;-40
2022/11/01 04:55:16;;;;;;;;;;;;;;;;;;5111603;28;1932;-38
2022/11/01 04:57:44;;;;;;;;;;;;;;;;;;5111641;28;1435;-39
2022/11/01 05:00:12;;;;;;;;;;;;;;;;;;5111600;28;1398;-39
2022/11/01 05:02:39;;;;;;;;;;;;;;;;;;5111226;28;2064;-39
2022/11/01 05:05:07;;;;;;;;;;;;;;;;;;5111414;28;1823;-38
2022/11/01 05:07:35;;;;;;;;;;;;;;;;;;5111649;28;1817;-40
2022/11/01 05:10:02;;;;;;;;;;;;;;;;;;5111586;28;1407;-38
2022/11/01 05:12:29;;;;;;;;;;;;;;;;;;5111513;28;1655;-38
2022/11/01 05:14:56;;;;;;;;;;;;;;;;;;5111471;28;1414;-38
2022/11/01 05:17:23;;;;;;;;;;;;;;;;;;5111430;28;1913;-39
2022/11/01 05:19:50;;;;;;;;;;;;;;;;;;5111519;28;1836;-38
2022/11/01 05:22:17;;;;;;;;;;;;;;;;;;5110013;28;1622;-38
2022/11/01 05:24:44;;;;;;;;;;;;;;;;;;5111104;28;1201;-37
2022/11/01 05:27:11;;;;;;;;;;;;;;;;;;5111216;28;1633;-38
2022/11/01 05:29:38;;;;;;;;;;;;;;;;;;5111396;28;1945;-39
2022/11/01 05:32:05;;;;;;;;;;;;;;;;;;5111233;28;1959;-38
2022/11/01 05:34:32;;;;;;;;;;;;;;;;;;5109911;28;1739;-37
2022/11/01 05:36:59;;;;;;;;;;;;;;;;;;5111843;28;2118;-43
2022/11/01 05:39:27;;;;;;;;;;;;;;;;;;5115181;28;2001;-38
2022/11/01 05:41:54;;;;;;;;;;;;;;;;;;5114815;27;1480;-41
2022/11/01 05:44:24;;;;;;;;;;;;;;;;;;5115247;27;1706;-39
2022/11/01 05:46:51;;;;;;;;;;;;;;;;;;5114982;28;1773;-38
2022/11/01 05:49:18;;;;;;;;;;;;;;;;;;5114874;28;2171;-38
2022/11/01 05:51:45;;;;;;;;;;;;;;;;;;5101235;28;2086;-39
2022/11/01 05:54:12;;;;;;;;;;;;;;;;;;5094538;28;1617;-38
2022/11/01 05:56:39;;;;;;;;;;;;;;;;;;5094247;28;1906;-38
2022/11/01 05:59:06;;;;;;;;;;;;;;;;;;5094196;28;2009;-38
2022/11/01 06:01:32;;;;;;;;;;;;;;;;;;5094257;28;1791;-38
2022/11/01 06:04:00;;;;;;;;;;;;;;;;;;5094273;28;1550;-39
2022/11/01 06:06:28;;;;;;;;;;;;;;;;;;5094289;28;1889;-37
2022/11/01 06:08:56;;;;;;;;;;;;;;;;;;5094463;28;2133;-39
2022/11/01 06:11:24;;;;;;;;;;;;;;;;;;5094377;28;1716;-38
2022/11/01 06:13:57;;;;;;;;;;;;;;;;;;5094022;28;1706;-39
2022/11/01 06:16:25;;;;;;;;;;;;;;;;;;5094336;28;1980;-38
2022/11/01 06:18:52;;;;;;;;;;;;;;;;;;5094084;28;1515;-38
2022/11/01 06:21:21;;;;;;;;;;;;;;;;;;5094127;28;2039;-36
2022/11/01 06:23:53;;;;;;;;;;;;;;;;;;5094102;28;1509;-38
2022/11/01 06:26:22;;;;;;;;;;;;;;;;;;5093654;28;1911;-39
2022/11/01 06:28:49;;;;;;;;;;;;;;;;;;5093928;28;1349;-41
2022/11/01 06:31:16;;;;;;;;;;;;;;;;;;5093912;28;1370;-39
2022/11/01 06:33:43;;;;;;;;;;;;;;;;;;5093945;28;1914;-40
2022/11/01 06:36:10;;;;;;;;;;;;;;;;;;5093577;28;2109;-40
2022/11/01 06:38:37;;;;;;;;;;;;;;;;;;5093498;28;1579;-39
2022/11/01 06:41:04;;;;;;;;;;;;;;;;;;5093392;28;1539;-42
2022/11/01 06:43:33;;;;;;;;;;;;;;;;;;5093654;28;1639;-42
2022/11/01 06:46:00;;;;;;;;;;;;;;;;;;5092203;28;1999;-39
2022/11/01 06:48:28;;;;;;;;;;;;;;;;;;5093467;28;1856;-40
2022/11/01 06:50:55;;;;;;;;;;;;;;;;;;5093541;28;1583;-40
2022/11/01 06:53:22;;;;;;;;;;;;;;;;;;5092990;28;1859;-38
2022/11/01 06:55:50;;;;;;;;;;;;;;;;;;5093175;28;1834;-39
2022/11/01 06:58:17;;;;;;;;;;;;;;;;;;5093272;28;1795;-39
2022/11/01 07:00:44;;;;;;;;;;;;;;;;;;5093159;28;1518;-38
2022/11/01 07:03:12;;;;;;;;;;;;;;;;;;5092014;28;1774;-39
2022/11/01 07:05:40;;;;;;;;;;;;;;;;;;5092738;28;1852;-40
2022/11/01 07:08:09;;;;;;;;;;;;;;;;;;5093157;28;2134;-39
2022/11/01 07:10:36;;;;;;;;;;;;;;;;;;5093026;28;2363;-40
2022/11/01 07:13:04;;;;;;;;;;;;;;;;;;5091726;28;1811;-38
2022/11/01 07:15:31;;;;;;;;;;;;;;;;;;5093015;28;1594;-39
2022/11/01 07:17:59;;;;;;;;;;;;;;;;;;5092783;28;2323;-38
2022/11/01 07:20:27;;;;;;;;;;;;;;;;;;5092626;28;1679;-39
2022/11/01 07:23:02;;;;;;;;;;;;;;;;;;5111035;28;2090;-44
2022/11/01 07:25:30;;;;;;;;;;;;;;;;;;5113083;28;1697;-39
2022/11/01 07:27:58;;;;;;;;;;;;;;;;;;5112911;28;1638;-41
2022/11/01 07:30:26;;;;;;;;;;;;;;;;;;5112995;28;1737;-39
2022/11/01 07:32:56;;;;;;;;;;;;;;;;;;5112695;28;1924;-39
2022/11/01 07:35:23;;;;;;;;;;;;;;;;;;5112998;28;1605;-39
2022/11/01 07:37:50;;;;;;;;;;;;;;;;;;5112903;28;1989;-38
2022/11/01 07:40:18;;;;;;;;;;;;;;;;;;5112616;28;1293;-39
2022/11/01 07:42:45;;;;;;;;;;;;;;;;;;5112635;28;1821;-39
2022/11/01 07:45:12;;;;;;;;;;;;;;;;;;5112804;28;1867;-39
2022/11/01 07:47:39;;;;;;;;;;;;;;;;;;5112597;28;1969;-37
2022/11/01 07:50:06;;;;;;;;;;;;;;;;;;5112727;28;1560;-39
2022/11/01 07:52:33;;;;;;;;;;;;;;;;;;5092517;28;1830;-38
2022/11/01 07:55:03;;;;;;;;;;;;;;;;;;5092255;28;1805;-41
2022/11/01 07:57:30;;;;;;;;;;;;;;;;;;5092369;28;1910;-38
2022/11/01 07:59:57;;;;;;;;;;;;;;;;;;5091336;28;1749;-38
2022/11/01 08:02:24;;;;;;;;;;;;;;;;;;5092112;28;1256;-38
2022/11/01 08:04:53;;;;;;;;;;;;;;;;;;5091676;28;1940;-39
2022/11/01 08:07:20;;;;;;;;;;;;;;;;;;5092098;28;2159;-38
2022/11/01 08:09:47;;;;;;;;;;;;;;;;;;5090918;28;1539;-43
2022/11/01 08:12:15;;;;;;;;;;;;;;;;;;5091832;28;1656;-39
2022/11/01 08:14:42;;;;;;;;;;;;;;;;;;5091744;28;1873;-41
2022/11/01 08:17:09;;;;;;;;;;;;;;;;;;5091663;28;1915;-38
2022/11/01 08:19:37;;;;;;;;;;;;;;;;;;5091548;28;1946;-39
2022/11/01 08:22:04;;;;;;;;;;;;;;;;;;5090896;28;1643;-38
2022/11/01 08:24:31;;;;;;;;;;;;;;;;;;5091772;28;2057;-39
2022/11/01 08:26:58;;;;;;;;;;;;;;;;;;5091316;28;1504;-38
2022/11/01 08:29:25;;;;;;;;;;;;;;;;;;5091637;28;1594;-41
2022/11/01 08:31:52;;;;;;;;;;;;;;;;;;5091378;28;1911;-39
2022/11/01 08:34:20;;;;;;;;;;;;;;;;;;5090318;28;1992;-40
2022/11/01 08:36:49;;;;;;;;;;;;;;;;;;5091165;28;1988;-39
2022/11/01 08:39:16;;;;;;;;;;;;;;;;;;5091639;28;1983;-39
2022/11/01 08:41:46;;;;;;;;;;;;;;;;;;5098979;28;1632;-39
2022/11/01 08:44:14;;;;;;;;;;;;;;;;;;5111607;28;1974;-40
2022/11/01 08:46:42;;;;;;;;;;;;;;;;;;5111612;28;1925;-38
2022/11/01 08:49:10;;;;;;;;;;;;;;;;;;5111424;28;1738;-39
2022/11/01 08:51:37;;;;;;;;;;;;;;;;;;5099594;28;1893;-39
2022/11/01 08:54:05;;;;;;;;;;;;;;;;;;5091428;28;1820;-38
2022/11/01 08:56:32;;;;;;;;;;;;;;;;;;5091301;28;1891;-39
2022/11/01 08:59:00;;;;;;;;;;;;;;;;;;5091184;28;1599;-40
2022/11/01 09:01:27;;;;;;;;;;;;;;;;;;5091248;28;2319;-39
2022/11/01 09:03:58;;;;;;;;;;;;;;;;;;5091159;28;1693;-39
2022/11/01 09:06:26;;;;;;;;;;;;;;;;;;5090999;28;1990;-39
2022/11/01 09:08:58;;;;;;;;;;;;;;;;;;5106797;28;2016;-39
2022/11/01 09:11:25;;;;;;;;;;;;;;;;;;5091220;28;1582;-41
2022/11/01 09:13:53;;;;;;;;;;;;;;;;;;5094966;28;1794;-39
2022/11/01 09:16:20;;;;;;;;;;;;;;;;;;5095260;28;1860;-39
2022/11/01 09:18:47;;;;;;;;;;;;;;;;;;5094796;28;1968;-39
2022/11/01 09:21:14;;;;;;;;;;;;;;;;;;5094862;28;1987;-39
2022/11/01 09:23:41;;;;;;;;;;;;;;;;;;5095103;28;1405;-39
2022/11/01 09:26:09;;;;;;;;;;;;;;;;;;5095043;28;2076;-38
2022/11/01 09:28:36;;;;;;;;;;;;;;;;;;5095410;28;2173;-42
2022/11/01 09:31:04;;;;;;;;;;;;;;;;;;5094982;28;1973;-41
2022/11/01 09:33:46;;;;;;;;;;;;;;;;;;5094706;28;1532;-42
2022/11/01 09:36:13;;;;;;;;;;;;;;;;;;5094563;28;1647;-50
2022/11/01 09:38:40;;;;;;;;;;;;;;;;;;5094859;28;2067;-45
2022/11/01 09:41:10;;;;;;;;;;;;;;;;;;5094906;28;1993;-42
2022/11/01 09:43:38;;;;;;;;;;;;;;;;;;5095001;28;1819;-43
2022/11/01 09:46:06;;;;;;;;;;;;;;;;;;5094588;28;1464;-40
2022/11/01 09:48:35;;;;;;;;;;;;;;;;;;5094484;28;1665;-45
2022/11/01 09:51:03;;;;;;;;;;;;;;;;;;5102299;28;2251;-41
2022/11/01 09:53:31;;;;;;;;;;;;;;;;;;5114983;28;1929;-43
2022/11/01 09:56:09;;;;;;;;;;;;;;;;;;5113523;28;2327;-45
2022/11/01 09:58:42;;;;;;;;;;;;;;;;;;5114573;27;1969;-47
2022/11/01 10:01:18;;;;;;;;;;;;;;;;;;5114834;28;1980;-41
2022/11/01 10:04:04;;;;;;;;;;;;;;;;;;5114752;27;1634;-44
2022/11/01 10:06:38;;;;;;;;;;;;;;;;;;5114099;28;2026;-45
2022/11/01 10:09:10;;;;;;;;;;;;;;;;;;5114390;28;1725;-46
2022/11/01 10:12:01;;;;;;;;;;;;;;;;;;5114761;28;2190;-42
2022/11/01 10:14:31;;;;;;;;;;;;;;;;;;5114057;28;1852;-43
2022/11/01 10:16:58;;;;;;;;;;;;;;;;;;5114622;27;2164;-41
2022/11/01 10:19:29;;;;;;;;;;;;;;;;;;5114240;28;1878;-41
2022/11/01 10:22:00;;;;;;;;;;;;;;;;;;5114378;28;1723;-41
2022/11/01 10:24:37;;;;;;;;;;;;;;;;;;5113761;28;2086;-42
2022/11/01 10:27:21;;;;;;;;;;;;;;;;;;5114367;28;1842;-41
2022/11/01 10:29:57;;;;;;;;;;;;;;;;;;5111928;28;2012;-45
2022/11/01 10:32:39;;;;;;;;;;;;;;;;;;5093857;28;1501;-41
2022/11/01 10:35:16;;;;;;;;;;;;;;;;;;5093790;28;1966;-42
2022/11/01 10:37:53;;;;;;;;;;;;;;;;;;5093615;28;1911;-41
2022/11/01 10:40:42;;;;;;;;;;;;;;;;;;5093692;28;1845;-41
2022/11/01 10:43:12;;;;;;;;;;;;;;;;;;5093584;28;2003;-45
2022/11/01 10:45:40;;;;;;;;;;;;;;;;;;5093519;28;2034;-41
2022/11/01 10:48:27;;;;;;;;;;;;;;;;;;5093692;28;2199;-42
2022/11/01 10:50:58;;;;;;;;;;;;;;;;;;5099896;28;2033;-40
2022/11/01 10:53:27;;;;;;;;;;;;;;;;;;5113792;28;1728;-42
2022/11/01 10:55:56;;;;;;;;;;;;;;;;;;5113741;28;1959;-41
2022/11/01 10:58:30;;;;;;;;;;;;;;;;;;5113559;28;1981;-42
2022/11/01 11:00:59;;;;;;;;;;;;;;;;;;5113624;28;1736;-50
2022/11/01 11:03:29;;;;;;;;;;;;;;;;;;5113349;28;2424;-49
2022/11/01 11:05:58;;;;;;;;;;;;;;;;;;5113413;28;1322;-50
2022/11/01 11:08:25;;;;;;;;;;;;;;;;;;5113328;28;1970;-45
2022/11/01 11:10:56;;;;;;;;;;;;;;;;;;5096986;28;2154;-52
2022/11/01 11:13:24;;;;;;;;;;;;;;;;;;5093000;28;1489;-48
2022/11/01 11:16:03;;;;;;;;;;;;;;;;;;5092523;28;2030;-48
2022/11/01 11:18:31;;;;;;;;;;;;;;;;;;5092865;28;2205;-45
2022/11/01 11:21:01;;;;;;;;;;;;;;;;;;5092737;28;1938;-49
2022/11/01 11:23:29;;;;;;;;;;;;;;;;;;5092712;28;1870;-49
2022/11/01 11:26:00;;;;;;;;;;;;;;;;;;5092611;28;1862;-44
2022/11/01 11:28:29;;;;;;;;;;;;;;;;;;5092414;28;1939;-48
2022/11/01 11:31:17;;;;;;;;;;;;;;;;;;5092599;28;1902;-49
2022/11/01 11:33:56;;;;;;;;;;;;;;;;;;5094030;28;1685;-41
2022/11/01 11:36:26;;;;;;;;;;;;;;;;;;5110959;28;2060;-45
2022/11/01 11:38:54;;;;;;;;;;;;;;;;;;5111988;28;2121;-45
2022/11/01 11:41:25;;;;;;;;;;;;;;;;;;5112721;28;2000;-46
2022/11/01 11:43:52;;;;;;;;;;;;;;;;;;5112320;28;1956;-49
2022/11/01 11:46:22;;;;;;;;;;;;;;;;;;5107146;28;2276;-50
2022/11/01 11:48:51;;;;;;;;;;;;;;;;;;5103258;28;2357;-44
2022/11/01 11:51:22;;;;;;;;;;;;;;;;;;5109290;28;2511;-48
2022/11/01 11:54:09;;;;;;;;;;;;;;;;;;5102140;28;1891;-51
2022/11/01 11:56:37;;;;;;;;;;;;;;;;;;5092095;28;2281;-49
2022/11/01 11:59:09;;;;;;;;;;;;;;;;;;5091891;28;2036;-51
2022/11/01 12:01:36;;;;;;;;;;;;;;;;;;5099777;28;2142;-46
2022/11/01 12:04:05;;;;;;;;;;;;;;;;;;5112302;28;1597;-48
2022/11/01 12:06:37;;;;;;;;;;;;;;;;;;5112260;28;1916;-42
2022/11/01 12:09:04;;;;;;;;;;;;;;;;;;5112258;28;2066;-53
2022/11/01 12:11:44;;;;;;;;;;;;;;;;;;5112314;28;1581;-53
2022/11/01 12:14:19;;;;;;;;;;;;;;;;;;5112089;28;1602;-48
2022/11/01 12:16:46;;;;;;;;;;;;;;;;;;5112308;28;1979;-41
2022/11/01 12:19:27;;;;;;;;;;;;;;;;;;5112035;28;1898;-47
2022/11/01 12:22:01;;;;;;;;;;;;;;;;;;5111953;28;1820;-47
2022/11/01 12:24:39;;;;;;;;;;;;;;;;;;5111957;28;1653;-49
2022/11/01 12:27:11;;;;;;;;;;;;;;;;;;5111910;28;2218;-51
2022/11/01 12:29:41;;;;;;;;;;;;;;;;;;5111887;28;1710;-48
2022/11/01 12:32:13;;;;;;;;;;;;;;;;;;5111709;28;2045;-44
2022/11/01 12:34:41;;;;;;;;;;;;;;;;;;5111468;28;2171;-51
2022/11/01 12:37:16;;;;;;;;;;;;;;;;;;5111552;28;1801;-46
2022/11/01 12:40:00;;;;;;;;;;;;;;;;;;5111546;28;2084;-48
2022/11/01 12:42:29;;;;;;;;;;;;;;;;;;5111635;28;2141;-50
2022/11/01 12:45:11;;;;;;;;;;;;;;;;;;5111896;28;1801;-44
2022/11/01 12:47:41;;;;;;;;;;;;;;;;;;5111386;28;1974;-49
2022/11/01 12:50:16;;;;;;;;;;;;;;;;;;5111480;28;1347;-47
2022/11/01 12:52:58;;;;;;;;;;;;;;;;;;5091320;28;2060;-43
2022/11/01 12:55:31;;;;;;;;;;;;;;;;;;5091200;28;1670;-49
2022/11/01 12:57:58;;;;;;;;;;;;;;;;;;5090847;28;1905;-49
2022/11/01 13:00:33;;;;;;;;;;;;;;;;;;5091220;28;1906;-48
2022/11/01 13:03:03;;;;;;;;;;;;;;;;;;5090976;28;2396;-49
2022/11/01 13:05:41;;;;;;;;;;;;;;;;;;5090889;28;1727;-48
2022/11/01 13:08:31;;;;;;;;;;;;;;;;;;5091067;28;2096;-45
2022/11/01 13:11:05;;;;;;;;;;;;;;;;;;5091210;28;1673;-49
2022/11/01 13:13:46;;;;;;;;;;;;;;;;;;5091181;28;2115;-50
2022/11/01 13:16:42;;;;;;;;;;;;;;;;;;5090890;28;1966;-48
2022/11/01 13:19:31;;;;;;;;;;;;;;;;;;5090495;28;1910;-46
2022/11/01 13:22:21;;;;;;;;;;;;;;;;;;5091076;28;2328;-41
2022/11/01 13:24:55;;;;;;;;;;;;;;;;;;5089539;28;1427;-42
2022/11/01 13:27:30;;;;;;;;;;;;;;;;;;5090821;28;2359;-45
2022/11/01 13:30:23;;;;;;;;;;;;;;;;;;5090961;28;1749;-43
2022/11/01 13:32:54;;;;;;;;;;;;;;;;;;5090843;28;1784;-43
2022/11/01 13:35:30;;;;;;;;;;;;;;;;;;5091017;28;1413;-43
2022/11/01 13:38:16;;;;;;;;;;;;;;;;;;5090726;28;1965;-41
2022/11/01 13:40:49;;;;;;;;;;;;;;;;;;5090561;28;2011;-41
2022/11/01 13:43:22;;;;;;;;;;;;;;;;;;5090892;28;1846;-44
2022/11/01 13:46:07;;;;;;;;;;;;;;;;;;5090660;28;2018;-46
2022/11/01 13:49:01;;;;;;;;;;;;;;;;;;5090776;28;1495;-45
2022/11/01 13:51:33;;;;;;;;;;;;;;;;;;5090609;28;1972;-48
2022/11/01 13:54:03;;;;;;;;;;;;;;;;;;5090491;28;2155;-45
2022/11/01 13:56:33;;;;;;;;;;;;;;;;;;5090696;28;1820;-44
2022/11/01 13:59:02;;;;;;;;;;;;;;;;;;5093092;28;2100;-43
2022/11/01 14:01:30;;;;;;;;;;;;;;;;;;5094316;28;1815;-45
2022/11/01 14:04:07;;;;;;;;;;;;;;;;;;5094193;28;1830;-46
2022/11/01 14:06:35;;;;;;;;;;;;;;;;;;5093823;28;1812;-43
2022/11/01 14:09:18;;;;;;;;;;;;;;;;;;5094356;28;1590;-47
2022/11/01 14:11:50;;;;;;;;;;;;;;;;;;5094176;28;1840;-45
2022/11/01 14:14:29;;;;;;;;;;;;;;;;;;5094331;28;2172;-47
2022/11/01 14:17:14;;;;;;;;;;;;;;;;;;5094320;28;1835;-43
2022/11/01 14:19:42;;;;;;;;;;;;;;;;;;5093629;28;2229;-47
2022/11/01 14:22:21;;;;;;;;;;;;;;;;;;5093939;28;1491;-46
2022/11/01 14:24:52;;;;;;;;;;;;;;;;;;5092614;28;1923;-46
2022/11/01 14:27:32;;;;;;;;;;;;;;;;;;5093924;28;1774;-46
2022/11/01 14:30:00;;;;;;;;;;;;;;;;;;5093809;28;1776;-43
2022/11/01 14:32:29;;;;;;;;;;;;;;;;;;5094168;28;2003;-44
2022/11/01 14:34:58;;;;;;;;;;;;;;;;;;5093755;28;2103;-49
2022/11/01 14:37:27;;;;;;;;;;;;;;;;;;5093954;28;1733;-48
2022/11/01 14:40:00;;;;;;;;;;;;;;;;;;5093395;28;1981;-48
2022/11/01 14:42:31;;;;;;;;;;;;;;;;;;5093881;28;1756;-47
2022/11/01 14:44:59;;;;;;;;;;;;;;;;;;5093702;28;1799;-46
2022/11/01 14:47:36;;;;;;;;;;;;;;;;;;5093816;28;1542;-43
2022/11/01 14:50:12;;;;;;;;;;;;;;;;;;5093378;28;1658;-47
2022/11/01 14:52:50;;;;;;;;;;;;;;;;;;5093061;28;1581;-47
2022/11/01 14:55:21;;;;;;;;;;;;;;;;;;5093136;28;1655;-51
2022/11/01 14:57:48;;;;;;;;;;;;;;;;;;5091960;28;1830;-46
2022/11/01 15:00:19;;;;;;;;;;;;;;;;;;5093252;28;1906;-47
2022/11/01 15:02:46;;;;;;;;;;;;;;;;;;5093135;28;2147;-49
2022/11/01 15:05:15;;;;;;;;;;;;;;;;;;5092885;28;1561;-44
2022/11/01 15:07:47;;;;;;;;;;;;;;;;;;5092902;28;1910;-48
2022/11/01 15:10:14;;;;;;;;;;;;;;;;;;5091962;28;1710;-47
2022/11/01 15:12:46;;;;;;;;;;;;;;;;;;5092753;28;1737;-44
2022/11/01 15:15:15;;;;;;;;;;;;;;;;;;5093127;28;1697;-49
2022/11/01 15:17:49;;;;;;;;;;;;;;;;;;5092867;28;1635;-46
2022/11/01 15:20:17;;;;;;;;;;;;;;;;;;5092595;28;2072;-43
2022/11/01 15:22:44;;;;;;;;;;;;;;;;;;5092661;28;1855;-45
2022/11/01 15:25:22;;;;;;;;;;;;;;;;;;5092618;28;1700;-46
2022/11/01 15:27:49;;;;;;;;;;;;;;;;;;5092507;28;1958;-49
2022/11/01 15:30:29;;;;;;;;;;;;;;;;;;5092601;28;1957;-43
2022/11/01 15:33:19;;;;;;;;;;;;;;;;;;5092547;28;1599;-43
2022/11/01 15:35:53;;;;;;;;;;;;;;;;;;5092464;28;1734;-48
2022/11/01 15:38:22;;;;;;;;;;;;;;;;;;5092175;28;2040;-47
2022/11/01 15:40:49;;;;;;;;;;;;;;;;;;5092417;28;1766;-46
2022/11/01 15:43:18;;;;;;;;;;;;;;;;;;5108084;28;1630;-48
2022/11/01 15:45:47;;;;;;;;;;;;;;;;;;5092298;28;1708;-47
2022/11/01 15:48:17;;;;;;;;;;;;;;;;;;5092407;28;2214;-42
2022/11/01 15:50:52;;;;;;;;;;;;;;;;;;5097246;28;1860;-48
2022/11/01 15:53:21;;;;;;;;;;;;;;;;;;5112440;28;1893;-41
2022/11/01 15:55:53;;;;;;;;;;;;;;;;;;5112598;28;2182;-49
2022/11/01 15:58:22;;;;;;;;;;;;;;;;;;5112477;28;2019;-47
2022/11/01 16:01:00;;;;;;;;;;;;;;;;;;5112433;27;2090;-49
2022/11/01 16:03:34;;;;;;;;;;;;;;;;;;5111249;28;1735;-46
2022/11/01 16:06:04;;;;;;;;;;;;;;;;;;5112491;28;2012;-47
2022/11/01 16:08:36;;;;;;;;;;;;;;;;;;5112632;28;2021;-51
2022/11/01 16:11:04;;;;;;;;;;;;;;;;;;5112309;28;1999;-46
2022/11/01 16:13:34;;;;;;;;;;;;;;;;;;5112360;28;1758;-48
2022/11/01 16:16:02;;;;;;;;;;;;;;;;;;5112115;28;2317;-48
2022/11/01 16:18:34;;;;;;;;;;;;;;;;;;5112276;28;1941;-45
2022/11/01 16:21:17;;;;;;;;;;;;;;;;;;5111785;28;1746;-49
2022/11/01 16:23:56;;;;;;;;;;;;;;;;;;5112055;28;2132;-53
2022/11/01 16:26:23;;;;;;;;;;;;;;;;;;5111507;28;1639;-45
2022/11/01 16:28:52;;;;;;;;;;;;;;;;;;5111731;28;2250;-46
2022/11/01 16:31:22;;;;;;;;;;;;;;;;;;5111874;28;1719;-44
2022/11/01 16:33:49;;;;;;;;;;;;;;;;;;5111702;28;1942;-45
2022/11/01 16:36:16;;;;;;;;;;;;;;;;;;5112102;27;1727;-45
2022/11/01 16:38:44;;;;;;;;;;;;;;;;;;5111595;28;1934;-45
2022/11/01 16:41:14;;;;;;;;;;;;;;;;;;5111865;28;1658;-52
2022/11/01 16:43:42;;;;;;;;;;;;;;;;;;5111780;28;1678;-52
2022/11/01 16:46:09;;;;;;;;;;;;;;;;;;5111598;28;2017;-51
2022/11/01 16:48:50;;;;;;;;;;;;;;;;;;5111825;28;1330;-47
2022/11/01 16:51:18;;;;;;;;;;;;;;;;;;5111198;28;2018;-46
2022/11/01 16:53:45;;;;;;;;;;;;;;;;;;5111564;28;1659;-46
2022/11/01 16:56:24;;;;;;;;;;;;;;;;;;5111610;28;1689;-49
2022/11/01 16:59:12;;;;;;;;;;;;;;;;;;5111641;28;2315;-48
2022/11/01 17:01:46;;;;;;;;;;;;;;;;;;5111314;28;2221;-50
2022/11/01 17:04:15;;;;;;;;;;;;;;;;;;5111224;28;1486;-47
2022/11/01 17:06:43;;;;;;;;;;;;;;;;;;5111200;28;2119;-52
2022/11/01 17:09:14;;;;;;;;;;;;;;;;;;5110071;28;2206;-51
2022/11/01 17:11:44;;;;;;;;;;;;;;;;;;5111254;28;1719;-51
2022/11/01 17:14:17;;;;;;;;;;;;;;;;;;5111210;28;2015;-42
2022/11/01 17:16:47;;;;;;;;;;;;;;;;;;5111428;28;2047;-48
2022/11/01 17:19:21;;;;;;;;;;;;;;;;;;5111416;28;1941;-52
2022/11/01 17:21:50;;;;;;;;;;;;;;;;;;5111304;28;1678;-51
2022/11/01 17:24:18;;;;;;;;;;;;;;;;;;5111313;28;1960;-48
2022/11/01 17:26:48;;;;;;;;;;;;;;;;;;5111181;28;1703;-45
2022/11/01 17:29:15;;;;;;;;;;;;;;;;;;5111161;28;1724;-43
2022/11/01 17:31:42;;;;;;;;;;;;;;;;;;5110927;28;1786;-47
2022/11/01 17:34:12;;;;;;;;;;;;;;;;;;5114139;28;1834;-45